Time;durP1;ratioP1;P1;durP2;ratioP2;P2;SDS_P1;SDS_P2;PMS_P1;PMS_P2;Temp;Humidity;BMP_temperature;BMP_pressure;BME280_temperature;BME280_humidity;BME280_pressure;Samples;Min_cycle;Max_cycle;Signal;HPM_P1;HPM_P2
2021/08/14 00:01:11;;;;;;;12.90;5.60;;;;;;;18.83;100.00;101376.02;1782271;80;22370;-79
2021/08/14 00:03:39;;;;;;;15.25;5.15;;;;;;;18.82;100.00;101370.31;1782083;80;20975;-84
2021/08/14 00:06:05;;;;;;;20.12;6.10;;;;;;;18.79;100.00;101362.69;1758137;80;21490;-79
2021/08/14 00:08:31;;;;;;;18.50;5.15;;;;;;;18.76;100.00;101368.73;1782439;80;21025;-80
2021/08/14 00:10:57;;;;;;;17.40;5.00;;;;;;;18.74;100.00;101370.97;1790472;80;21537;-81
2021/08/14 00:13:23;;;;;;;17.67;5.92;;;;;;;18.74;100.00;101382.45;1763668;80;20887;-77
2021/08/14 00:15:48;;;;;;;14.38;5.25;;;;;;;18.73;100.00;101379.41;1790543;80;21545;-78
2021/08/14 00:18:14;;;;;;;17.73;5.20;;;;;;;18.70;100.00;101380.81;1790473;80;20938;-80
2021/08/14 00:20:40;;;;;;;18.80;5.62;;;;;;;18.70;100.00;101382.73;1790593;80;20975;-80
2021/08/14 00:23:06;;;;;;;15.23;5.33;;;;;;;18.67;100.00;101379.23;1789970;80;20863;-80
2021/08/14 00:25:32;;;;;;;18.35;5.87;;;;;;;18.67;100.00;101380.60;1791189;80;20879;-80
2021/08/14 00:27:58;;;;;;;23.20;6.40;;;;;;;18.64;100.00;101377.90;1787525;80;21050;-77
2021/08/14 00:30:24;;;;;;;21.42;6.33;;;;;;;18.63;100.00;101377.66;1761745;81;20895;-79
2021/08/14 00:32:51;;;;;;;15.98;6.15;;;;;;;18.61;100.00;101380.66;1782458;80;20969;-79
2021/08/14 00:35:18;;;;;;;20.55;6.87;;;;;;;18.60;100.00;101380.41;1792474;80;20974;-78
2021/08/14 00:37:44;;;;;;;22.52;6.25;;;;;;;18.59;100.00;101376.63;1792740;80;21010;-79
2021/08/14 00:40:11;;;;;;;17.60;6.47;;;;;;;18.58;100.00;101377.72;1764241;80;21027;-79
2021/08/14 00:42:37;;;;;;;20.15;6.28;;;;;;;18.56;100.00;101375.83;1792781;80;21025;-78
2021/08/14 00:45:04;;;;;;;20.35;6.60;;;;;;;18.55;100.00;101375.58;1792942;80;21042;-80
2021/08/14 00:47:30;;;;;;;21.17;6.62;;;;;;;18.53;100.00;101374.52;1792817;80;21534;-79
2021/08/14 00:49:57;;;;;;;16.60;5.60;;;;;;;18.51;100.00;101382.74;1792950;79;20887;-85
2021/08/14 00:52:24;;;;;;;22.62;6.45;;;;;;;18.49;100.00;101383.02;1791060;79;20951;-86
2021/08/14 00:54:50;;;;;;;18.87;6.28;;;;;;;18.47;100.00;101385.25;1793014;80;21522;-80
2021/08/14 00:57:17;;;;;;;18.12;6.58;;;;;;;18.46;100.00;101382.25;1792632;80;21130;-80
2021/08/14 00:59:45;;;;;;;18.07;6.35;;;;;;;18.45;100.00;101383.36;1792609;78;20967;-80
2021/08/14 01:02:11;;;;;;;18.20;5.78;;;;;;;18.44;100.00;101385.81;1792802;80;21010;-80
2021/08/14 01:04:37;;;;;;;17.52;5.85;;;;;;;18.43;100.00;101384.20;1792922;80;21551;-84
2021/08/14 01:07:03;;;;;;;15.48;6.05;;;;;;;18.43;100.00;101386.92;1792802;80;21475;-80
2021/08/14 01:09:30;;;;;;;19.02;5.95;;;;;;;18.42;100.00;101377.69;1792691;80;21055;-79
2021/08/14 01:12:02;;;;;;;18.87;6.28;;;;;;;18.42;100.00;101377.69;1792637;80;21411;-79
2021/08/14 01:14:31;;;;;;;15.80;6.35;;;;;;;18.40;100.00;101377.96;1792954;80;21066;-77
2021/08/14 01:16:57;;;;;;;21.42;6.53;;;;;;;18.39;100.00;101384.53;1793054;80;21042;-79
2021/08/14 01:19:24;;;;;;;15.58;6.12;;;;;;;18.38;100.00;101370.61;1792892;80;21387;-79
2021/08/14 01:21:52;;;;;;;23.35;7.10;;;;;;;18.36;100.00;101376.94;1792723;80;21864;-80
2021/08/14 01:24:20;;;;;;;24.25;7.15;;;;;;;18.34;100.00;101373.12;1792514;80;20955;-79
2021/08/14 01:26:46;;;;;;;21.70;6.72;;;;;;;18.32;100.00;101375.35;1793028;80;21045;-79
2021/08/14 01:29:12;;;;;;;25.02;7.70;;;;;;;18.31;100.00;101378.36;1733443;82;21122;-80
2021/08/14 01:31:40;;;;;;;18.87;6.47;;;;;;;18.29;100.00;101381.36;1733612;82;21035;-79
2021/08/14 01:34:06;;;;;;;22.90;6.87;;;;;;;18.25;100.00;101376.24;1733595;82;21138;-79
2021/08/14 01:36:32;;;;;;;25.45;7.78;;;;;;;18.23;100.00;101375.71;1734511;82;21079;-80
2021/08/14 01:39:02;;;;;;;19.20;6.67;;;;;;;18.21;100.00;101368.95;1733271;82;20976;-77
2021/08/14 01:41:28;;;;;;;19.10;6.67;;;;;;;18.18;100.00;101371.70;1733485;82;21004;-77
2021/08/14 01:44:02;;;;;;;22.85;7.40;;;;;;;18.16;100.00;101375.27;1733472;82;21472;-78
2021/08/14 01:46:35;;;;;;;19.60;6.53;;;;;;;18.10;100.00;101367.70;1729875;82;22115;-76
2021/08/14 01:49:02;;;;;;;20.68;7.05;;;;;;;18.07;100.00;101365.55;1733349;82;21083;-78
2021/08/14 01:51:29;;;;;;;16.12;6.15;;;;;;;18.04;100.00;101368.05;1733318;82;21499;-76
2021/08/14 01:53:58;;;;;;;17.52;7.08;;;;;;;18.01;100.00;101363.99;1765449;80;20995;-78
2021/08/14 01:56:26;;;;;;;19.50;7.17;;;;;;;18.00;100.00;101360.17;1792692;80;21454;-78
2021/08/14 01:58:53;;;;;;;20.20;6.83;;;;;;;17.99;100.00;101362.66;1792323;79;21112;-78
2021/08/14 02:01:19;;;;;;;19.92;7.33;;;;;;;17.96;100.00;101359.14;1790555;80;20955;-79
2021/08/14 02:03:47;;;;;;;17.60;6.90;;;;;;;17.92;100.00;101356.19;1790316;80;21097;-78
2021/08/14 02:06:19;;;;;;;24.67;7.22;;;;;;;17.89;100.00;101355.41;1790286;80;21022;-78
2021/08/14 02:08:46;;;;;;;23.35;7.33;;;;;;;17.87;100.00;101349.42;1773842;80;21051;-78
2021/08/14 02:11:16;;;;;;;30.00;7.90;;;;;;;17.83;100.00;101354.66;1773817;80;21128;-79
2021/08/14 02:13:44;;;;;;;22.25;8.38;;;;;;;17.81;100.00;101350.03;1773878;80;20996;-79
2021/08/14 02:16:11;;;;;;;23.70;8.53;;;;;;;17.75;100.00;101356.61;1748151;80;21586;-78
2021/08/14 02:18:37;;;;;;;26.00;8.28;;;;;;;17.75;100.00;101356.61;1773626;80;21070;-80
2021/08/14 02:21:04;;;;;;;35.20;9.58;;;;;;;17.74;100.00;101354.19;1774214;80;21007;-78
2021/08/14 02:23:31;;;;;;;23.12;7.92;;;;;;;17.72;100.00;101351.73;1773640;80;21173;-79
2021/08/14 02:25:58;;;;;;;29.77;8.70;;;;;;;17.70;100.00;101359.39;1773942;80;20996;-84
2021/08/14 02:28:24;;;;;;;26.12;7.97;;;;;;;17.68;100.00;101357.52;1773897;80;21031;-78
2021/08/14 02:30:50;;;;;;;24.18;7.92;;;;;;;17.69;100.00;101362.67;1773701;80;20868;-77
2021/08/14 02:33:16;;;;;;;20.35;7.60;;;;;;;17.67;100.00;101358.05;1774139;80;21043;-78
2021/08/14 02:35:42;;;;;;;25.72;7.45;;;;;;;17.66;100.00;101365.16;1773953;80;21058;-79
2021/08/14 02:38:08;;;;;;;17.70;6.95;;;;;;;17.66;100.00;101365.16;1748194;80;20951;-78
2021/08/14 02:40:35;;;;;;;24.18;7.25;;;;;;;17.66;100.00;101367.89;1773840;80;20865;-79
2021/08/14 02:43:06;;;;;;;16.67;6.58;;;;;;;17.66;100.00;101367.89;1773458;80;20992;-78
2021/08/14 02:45:32;;;;;;;18.10;5.85;;;;;;;17.65;100.00;101364.36;1748092;80;21003;-76
2021/08/14 02:48:01;;;;;;;11.68;4.72;;;;;;;17.57;100.00;101351.34;1773972;80;21096;-79
2021/08/14 02:50:28;;;;;;;14.35;4.87;;;;;;;17.54;100.00;101341.58;1773456;80;21008;-84
2021/08/14 02:52:54;;;;;;;19.35;4.85;;;;;;;17.54;100.00;101341.58;1773719;80;21550;-79
2021/08/14 02:55:21;;;;;;;9.48;4.67;;;;;;;17.63;100.00;101363.02;1773742;80;21027;-78
2021/08/14 02:57:47;;;;;;;9.88;4.00;;;;;;;17.51;100.00;101342.16;1773873;80;21166;-83
2021/08/14 03:00:14;;;;;;;10.23;4.50;;;;;;;17.59;100.00;101360.06;1776623;80;21182;-79
2021/08/14 03:02:40;;;;;;;12.18;4.78;;;;;;;17.60;100.00;101368.49;1778729;80;21007;-79
2021/08/14 03:05:08;;;;;;;10.50;5.17;;;;;;;17.61;100.00;101365.20;1783239;80;20876;-79
2021/08/14 03:07:34;;;;;;;13.55;4.65;;;;;;;17.61;100.00;101358.39;1792624;80;21557;-79
2021/08/14 03:10:01;;;;;;;10.20;4.65;;;;;;;17.61;100.00;101356.48;1792762;80;20943;-78
2021/08/14 03:12:27;;;;;;;12.50;5.12;;;;;;;17.64;100.00;101351.00;1792629;80;21034;-82
2021/08/14 03:14:53;;;;;;;15.50;5.25;;;;;;;17.66;100.00;101355.07;1792550;80;21034;-78
2021/08/14 03:17:19;;;;;;;13.98;5.50;;;;;;;17.71;100.00;101354.22;1792782;80;20978;-75
2021/08/14 03:19:45;;;;;;;17.07;5.15;;;;;;;17.75;100.00;101364.80;1792957;80;20848;-78
2021/08/14 03:22:11;;;;;;;21.93;5.72;;;;;;;17.79;100.00;101355.51;1793382;80;21137;-79
2021/08/14 03:24:38;;;;;;;14.18;5.70;;;;;;;17.81;100.00;101350.59;1792664;80;21134;-77
2021/08/14 03:27:05;;;;;;;13.08;4.75;;;;;;;17.83;100.00;101347.03;1792576;80;21097;-76
2021/08/14 03:29:33;;;;;;;14.35;5.00;;;;;;;17.88;100.00;101355.13;1792623;80;21073;-78
2021/08/14 03:31:59;;;;;;;12.78;4.97;;;;;;;17.93;100.00;101356.44;1793002;80;21027;-78
2021/08/14 03:34:25;;;;;;;13.75;5.08;;;;;;;17.84;100.00;101341.27;1792778;80;21521;-79
2021/08/14 03:36:51;;;;;;;13.53;4.40;;;;;;;18.01;100.00;101363.99;1775148;80;21124;-78
2021/08/14 03:39:17;;;;;;;19.70;4.95;;;;;;;18.05;100.00;101362.85;1787822;80;20983;-86
2021/08/14 03:41:43;;;;;;;16.75;4.80;;;;;;;18.09;100.00;101359.82;1763693;80;21014;-79
2021/08/14 03:44:09;;;;;;;11.12;4.72;;;;;;;18.13;100.00;101367.11;1792623;80;20938;-76
2021/08/14 03:46:36;;;;;;;17.27;4.67;;;;;;;18.20;100.00;101365.94;1792789;80;20840;-79
2021/08/14 03:49:02;;;;;;;15.85;4.28;;;;;;;18.25;100.00;101364.52;1792769;80;21498;-78
2021/08/14 03:51:28;;;;;;;10.85;4.40;;;;;;;18.26;100.00;101375.13;1763542;80;21010;-76
2021/08/14 03:53:53;;;;;;;8.68;4.00;;;;;;;18.31;100.00;101364.71;1792611;78;20961;-79
2021/08/14 03:56:19;;;;;;;10.10;4.05;;;;;;;18.36;100.00;101370.11;1792525;80;20827;-77
2021/08/14 03:58:45;;;;;;;12.40;4.30;;;;;;;18.41;100.00;101371.39;1788076;80;20985;-79
2021/08/14 04:01:13;;;;;;;13.85;4.70;;;;;;;18.46;100.00;101365.06;1789731;79;22069;-78
2021/08/14 04:03:39;;;;;;;12.93;4.60;;;;;;;18.52;100.00;101376.97;1765607;80;20996;-78
2021/08/14 04:06:05;;;;;;;9.43;4.25;;;;;;;18.59;100.00;101384.82;1765498;81;20896;-81
2021/08/14 04:08:32;;;;;;;13.32;4.72;;;;;;;18.65;100.00;101378.70;1762521;80;21047;-79
2021/08/14 04:10:58;;;;;;;14.30;5.03;;;;;;;18.71;100.00;101381.66;1743383;81;21146;-80
2021/08/14 04:13:24;;;;;;;10.45;4.53;;;;;;;18.82;100.00;101389.95;1731438;81;21207;-79
2021/08/14 04:15:50;;;;;;;11.38;4.50;;;;;;;18.92;100.00;101393.11;1744139;82;20940;-76
2021/08/14 04:18:16;;;;;;;12.15;4.47;;;;;;;19.01;100.00;101392.70;1744154;82;21043;-79
2021/08/14 04:20:42;;;;;;;16.17;5.10;;;;;;;19.08;100.00;101395.05;1744047;81;20967;-79
2021/08/14 04:23:08;;;;;;;9.75;4.87;;;;;;;19.16;100.00;101395.74;1741352;81;21081;-80
2021/08/14 04:25:34;;;;;;;18.65;5.87;;;;;;;19.24;100.00;101397.80;1737627;81;21069;-79
2021/08/14 04:27:59;;;;;;;13.60;5.92;;;;;;;19.40;100.00;101400.52;1745625;81;20891;-79
2021/08/14 04:30:25;;;;;;;13.68;5.90;;;;;;;19.60;100.00;101405.39;1738058;81;20908;-79
2021/08/14 04:32:51;;;;;;;14.70;6.72;;;;;;;19.92;100.00;101405.92;1736428;81;20947;-79
2021/08/14 04:35:17;;;;;;;20.77;6.20;;;;;;;20.11;100.00;101405.25;1806723;78;20885;-84
2021/08/14 04:37:44;;;;;;;19.25;7.20;;;;;;;20.23;100.00;101406.67;1805695;78;22011;-78
2021/08/14 04:40:14;;;;;;;18.17;6.85;;;;;;;20.35;100.00;101403.70;1810919;79;21550;-79
2021/08/14 04:42:41;;;;;;;17.50;7.03;;;;;;;20.48;100.00;101411.62;1815057;79;21042;-79
2021/08/14 04:45:09;;;;;;;25.25;8.03;;;;;;;20.70;100.00;101416.37;1814838;79;21144;-85
2021/08/14 04:47:35;;;;;;;20.17;7.47;;;;;;;20.94;100.00;101412.55;1782883;80;21049;-79
2021/08/14 04:50:01;;;;;;;18.62;6.53;;;;;;;21.17;100.00;101421.61;1782847;80;21774;-79
2021/08/14 04:52:28;;;;;;;16.93;7.72;;;;;;;21.25;100.00;101429.89;1782691;80;21570;-76
2021/08/14 04:54:53;;;;;;;20.25;7.92;;;;;;;21.30;100.00;101421.55;1782786;80;21128;-79
2021/08/14 04:57:19;;;;;;;20.97;7.55;;;;;;;21.47;100.00;101425.55;1782851;80;20934;-80
2021/08/14 04:59:45;;;;;;;18.85;7.75;;;;;;;21.53;100.00;101428.41;1782726;80;21604;-80
2021/08/14 05:02:11;;;;;;;19.35;8.05;;;;;;;21.66;100.00;101430.27;1782864;80;21124;-78
2021/08/14 05:04:37;;;;;;;17.00;7.78;;;;;;;21.81;100.00;101429.63;1776045;79;20840;-82
2021/08/14 05:07:04;;;;;;;22.10;8.30;;;;;;;22.07;100.00;101427.00;1729034;82;20959;-79
2021/08/14 05:09:30;;;;;;;21.10;7.92;;;;;;;22.36;100.00;101431.97;1722070;83;21599;-79
2021/08/14 05:11:56;;;;;;;21.87;8.30;;;;;;;22.55;100.00;101429.74;1697276;83;20980;-79
2021/08/14 05:14:22;;;;;;;18.42;8.15;;;;;;;22.77;100.00;101433.52;1722731;83;21001;-79
2021/08/14 05:16:47;;;;;;;17.37;7.47;;;;;;;22.96;100.00;101428.52;1722678;83;20888;-84
2021/08/14 05:19:13;;;;;;;18.75;8.23;;;;;;;23.11;100.00;101425.28;1722815;83;21572;-80
2021/08/14 05:21:39;;;;;;;19.87;8.15;;;;;;;23.27;100.00;101433.05;1722606;83;21071;-83
2021/08/14 05:24:05;;;;;;;16.90;7.95;;;;;;;23.34;100.00;101436.91;1729059;80;20916;-80
2021/08/14 05:26:32;;;;;;;16.00;7.28;;;;;;;23.45;100.00;101437.96;1793534;80;21767;-80
2021/08/14 05:28:58;;;;;;;16.90;7.20;;;;;;;23.64;100.00;101436.20;1816776;77;20980;-78
2021/08/14 05:31:24;;;;;;;15.68;6.75;;;;;;;23.97;99.46;101438.66;1826424;78;21046;-80
2021/08/14 05:33:50;;;;;;;17.65;7.17;;;;;;;24.42;96.95;101435.38;1826118;78;20872;-79
2021/08/14 05:36:15;;;;;;;11.80;5.80;;;;;;;24.88;95.41;101433.61;1826244;78;20833;-79
2021/08/14 05:38:42;;;;;;;14.95;5.92;;;;;;;25.43;89.02;101436.39;1826089;78;21676;-79
2021/08/14 05:41:08;;;;;;;12.70;5.33;;;;;;;25.75;85.32;101435.55;1826064;78;21054;-85
2021/08/14 05:43:35;;;;;;;12.10;5.40;;;;;;;26.09;79.94;101439.63;1826245;78;21507;-81
2021/08/14 05:46:01;;;;;;;16.20;4.95;;;;;;;26.41;76.54;101446.19;1826265;78;21027;-80
2021/08/14 05:48:27;;;;;;;10.93;5.15;;;;;;;26.70;73.92;101434.88;1826117;78;21459;-79
2021/08/14 05:50:52;;;;;;;9.95;4.85;;;;;;;26.99;72.98;101438.50;1826126;78;21131;-82
2021/08/14 05:53:18;;;;;;;12.28;4.87;;;;;;;27.43;70.25;101439.16;1826084;78;20916;-77
2021/08/14 05:55:46;;;;;;;9.90;4.72;;;;;;;27.83;66.75;101434.91;1826313;78;20939;-81
2021/08/14 05:58:13;;;;;;;13.20;5.03;;;;;;;28.08;65.91;101435.52;1826220;78;21085;-79
2021/08/14 06:00:39;;;;;;;9.53;4.70;;;;;;;28.53;63.43;101433.64;1826164;77;20932;-80
2021/08/14 06:03:05;;;;;;;8.80;4.22;;;;;;;29.26;62.09;101438.73;1761265;81;21167;-80
2021/08/14 06:05:31;;;;;;;13.55;4.50;;;;;;;29.84;58.66;101439.42;1764178;81;20925;-79
2021/08/14 06:07:56;;;;;;;11.40;4.60;;;;;;;30.49;55.40;101445.42;1747506;82;20956;-80
2021/08/14 06:10:23;;;;;;;8.35;4.20;;;;;;;30.71;51.63;101445.75;1761593;81;20906;-79
2021/08/14 06:12:49;;;;;;;9.50;5.00;;;;;;;31.12;51.88;101445.86;1761387;80;20970;-78
2021/08/14 06:15:15;;;;;;;7.72;4.50;;;;;;;31.73;49.33;101441.75;1747409;82;21091;-80
2021/08/14 06:17:41;;;;;;;12.33;4.67;;;;;;;31.75;47.64;101447.75;1761398;81;21455;-79
2021/08/14 06:20:12;;;;;;;9.28;4.40;;;;;;;32.09;47.11;101442.89;1759172;81;21014;-78
2021/08/14 06:22:37;;;;;;;14.13;4.58;;;;;;;32.23;45.04;101442.77;1747094;82;21048;-81
2021/08/14 06:25:04;;;;;;;11.28;4.72;;;;;;;32.23;44.98;101440.78;1761108;80;21029;-80
2021/08/14 06:27:30;;;;;;;19.07;4.92;;;;;;;32.05;43.81;101440.66;1761431;81;21059;-79
2021/08/14 06:29:56;;;;;;;12.28;5.97;;;;;;;31.72;44.45;101443.55;1759225;81;20835;-80
2021/08/14 06:32:22;;;;;;;9.48;4.53;;;;;;;31.63;43.82;101439.08;1747458;82;20977;-78
2021/08/14 06:34:48;;;;;;;10.43;4.70;;;;;;;31.94;44.76;101436.98;1786620;80;21054;-79
2021/08/14 06:37:14;;;;;;;11.73;4.97;;;;;;;32.24;42.91;101432.64;1778234;79;20880;-79
2021/08/14 06:39:41;;;;;;;9.08;5.00;;;;;;;32.62;42.18;101433.86;1787240;80;21118;-80
2021/08/14 06:42:08;;;;;;;8.90;4.45;;;;;;;32.66;41.44;101444.47;1786785;80;21040;-85
2021/08/14 06:44:34;;;;;;;9.85;5.03;;;;;;;32.74;40.29;101435.73;1760426;80;21013;-80
2021/08/14 06:47:01;;;;;;;11.10;4.75;;;;;;;32.76;41.36;101437.52;1787085;80;20963;-79
2021/08/14 06:49:27;;;;;;;10.63;4.62;;;;;;;33.33;41.10;101438.36;1787021;80;21057;-80
2021/08/14 06:51:53;;;;;;;12.43;5.15;;;;;;;33.64;39.41;101434.63;1779764;80;21448;-79
2021/08/14 06:54:19;;;;;;;14.18;4.97;;;;;;;33.73;39.23;101430.84;1793333;80;20903;-78
2021/08/14 06:56:44;;;;;;;14.68;5.05;;;;;;;33.79;39.29;101439.03;1778271;80;20911;-80
2021/08/14 06:59:10;;;;;;;11.57;4.15;;;;;;;33.80;38.59;101437.84;1778041;80;20999;-79
2021/08/14 07:01:36;;;;;;;14.43;5.28;;;;;;;33.70;38.03;101439.42;1777341;80;21638;-80
2021/08/14 07:04:03;;;;;;;11.70;4.55;;;;;;;33.82;38.28;101438.83;1778192;80;21567;-79
2021/08/14 07:06:29;;;;;;;12.00;4.65;;;;;;;33.93;37.94;101434.03;1772845;80;21054;-80
2021/08/14 07:08:55;;;;;;;10.32;5.22;;;;;;;33.95;37.66;101441.44;1777838;80;20891;-79
2021/08/14 07:11:22;;;;;;;14.33;5.20;;;;;;;33.96;37.25;101441.62;1787390;80;20914;-80
2021/08/14 07:13:50;;;;;;;11.40;4.70;;;;;;;33.98;37.36;101438.44;1772017;80;21001;-84
2021/08/14 07:16:17;;;;;;;8.10;4.37;;;;;;;33.63;36.31;101437.23;1762046;80;21674;-78
2021/08/14 07:18:43;;;;;;;11.08;4.28;;;;;;;33.05;37.49;101432.69;1787071;80;21038;-80
2021/08/14 07:21:09;;;;;;;9.90;4.30;;;;;;;33.08;37.97;101441.08;1777909;80;20987;-77
2021/08/14 07:23:36;;;;;;;8.73;3.87;;;;;;;33.15;38.25;101439.72;1755883;81;21670;-80
2021/08/14 07:26:02;;;;;;;11.90;4.97;;;;;;;33.44;37.86;101429.41;1756035;81;21062;-80
2021/08/14 07:28:28;;;;;;;12.18;4.75;;;;;;;33.69;37.49;101427.25;1756071;81;21144;-80
2021/08/14 07:30:54;;;;;;;12.28;4.50;;;;;;;33.77;36.25;101430.26;1755779;81;20996;-81
2021/08/14 07:33:20;;;;;;;6.97;4.20;;;;;;;33.29;37.31;101430.55;1755978;81;20976;-78
2021/08/14 07:35:46;;;;;;;8.68;3.55;;;;;;;33.25;37.93;101438.93;1756223;81;21052;-80
2021/08/14 07:38:14;;;;;;;8.85;3.75;;;;;;;33.48;37.15;101432.99;1755741;81;21034;-81
2021/08/14 07:40:39;;;;;;;10.13;3.77;;;;;;;33.58;36.45;101431.42;1756126;81;21039;-81
2021/08/14 07:43:08;;;;;;;8.83;4.08;;;;;;;33.36;36.50;101424.99;1756104;81;20887;-80
2021/08/14 07:45:34;;;;;;;6.50;3.55;;;;;;;33.47;37.23;101424.41;1755775;81;20992;-78
2021/08/14 07:48:06;;;;;;;8.33;3.52;;;;;;;33.51;36.87;101427.23;1756327;81;21051;-81
2021/08/14 07:50:34;;;;;;;16.30;3.30;;;;;;;33.40;36.14;101428.58;1756370;81;21039;-81
2021/08/14 07:53:02;;;;;;;8.05;3.58;;;;;;;33.11;35.47;101436.70;1756208;81;21069;-79
2021/08/14 07:55:30;;;;;;;6.25;3.83;;;;;;;32.84;36.63;101431.98;1755943;81;21066;-83
2021/08/14 07:57:56;;;;;;;7.05;3.50;;;;;;;32.95;37.01;101432.23;1756070;81;21534;-85
2021/08/14 08:00:24;;;;;;;9.03;3.65;;;;;;;32.97;36.59;101433.22;1756748;81;20951;-80
2021/08/14 08:02:51;;;;;;;5.35;3.27;;;;;;;33.07;36.63;101428.91;1765333;81;20995;-80
2021/08/14 08:05:18;;;;;;;4.72;3.50;;;;;;;33.37;36.39;101422.39;1765434;81;21075;-83
2021/08/14 08:07:45;;;;;;;6.22;3.40;;;;;;;33.36;35.62;101420.80;1764776;81;21027;-79
2021/08/14 08:10:14;;;;;;;5.62;3.60;;;;;;;33.41;36.08;101421.78;1735340;82;21471;-77
2021/08/14 08:12:41;;;;;;;8.63;3.42;;;;;;;33.52;35.01;101416.85;1767037;80;21050;-80
2021/08/14 08:15:09;;;;;;;7.30;3.47;;;;;;;33.54;35.03;101406.08;1735305;82;21006;-79
2021/08/14 08:17:36;;;;;;;11.93;3.62;;;;;;;33.34;35.11;101421.78;1767313;80;21903;-80
2021/08/14 08:20:07;;;;;;;7.35;2.95;;;;;;;33.51;34.08;101416.63;1767243;81;20954;-79
2021/08/14 08:22:33;;;;;;;8.38;3.25;;;;;;;33.45;34.21;101399.45;1748181;82;21472;-78
2021/08/14 08:24:59;;;;;;;15.65;6.92;;;;;;;33.65;34.13;101409.66;1747698;82;21004;-84
2021/08/14 08:27:26;;;;;;;12.00;2.80;;;;;;;34.02;33.74;101413.45;1747932;82;21022;-82
2021/08/14 08:29:52;;;;;;;5.35;3.65;;;;;;;34.08;32.22;101406.87;1747671;82;21034;-79
2021/08/14 08:32:18;;;;;;;5.65;3.33;;;;;;;33.57;32.64;101408.08;1747823;82;21551;-84
2021/08/14 08:34:45;;;;;;;31.25;4.15;;;;;;;33.53;33.31;101401.67;1748252;82;20976;-79
2021/08/14 08:37:11;;;;;;;5.80;2.80;;;;;;;33.79;32.53;101413.06;1748287;82;20997;-77
2021/08/14 08:39:38;;;;;;;5.33;2.90;;;;;;;34.06;31.92;101402.27;1747987;82;20897;-77
2021/08/14 08:42:08;;;;;;;6.80;3.05;;;;;;;33.84;32.32;101396.69;1747671;82;21110;-79
2021/08/14 08:44:34;;;;;;;12.13;3.05;;;;;;;33.89;32.64;101401.09;1747826;82;20948;-81
2021/08/14 08:47:01;;;;;;;5.97;3.10;;;;;;;34.14;31.70;101382.27;1747857;82;21051;-79
2021/08/14 08:49:29;;;;;;;7.17;3.30;;;;;;;34.25;33.47;101396.86;1747885;82;21547;-79
2021/08/14 08:51:55;;;;;;;16.75;3.35;;;;;;;34.55;31.80;101376.19;1747483;82;20980;-80
2021/08/14 08:54:21;;;;;;;8.30;2.72;;;;;;;34.68;31.22;101384.95;1757507;80;21176;-77
2021/08/14 08:56:47;;;;;;;11.43;2.87;;;;;;;34.46;30.70;101382.00;1754950;80;21645;-79
2021/08/14 08:59:13;;;;;;;7.25;3.02;;;;;;;34.27;31.51;101378.47;1778644;80;20940;-79
2021/08/14 09:01:41;;;;;;;9.40;3.22;;;;;;;34.37;31.60;101379.63;1777134;80;21000;-82
2021/08/14 09:04:29;;;;;;;6.62;2.87;;;;;;;34.71;31.28;101386.11;1775874;80;21035;-86
2021/08/14 09:06:59;;;;;;;11.22;2.95;;;;;;;35.09;30.78;101385.73;1775857;80;21034;-86
2021/08/14 09:09:29;;;;;;;16.35;6.65;;;;;;;35.18;29.99;101372.67;1775909;80;21523;-86
2021/08/14 09:12:03;;;;;;;8.63;3.65;;;;;;;34.74;30.64;101372.69;1658025;86;21062;-89
2021/08/14 09:14:48;;;;;;;8.40;3.62;;;;;;;34.65;30.54;101376.54;1651406;85;21527;-81
2021/08/14 09:17:14;;;;;;;5.65;3.25;;;;;;;34.75;31.41;101370.10;1644774;86;21073;-84
2021/08/14 09:19:40;;;;;;;4.60;3.20;;;;;;;35.03;30.70;101375.56;1620456;87;21802;-89
2021/08/14 09:22:20;;;;;;;8.90;2.98;;;;;;;34.61;30.26;101369.56;1620597;88;20889;-86
2021/08/14 09:24:46;;;;;;;6.75;2.95;;;;;;;34.35;30.40;101387.62;1620327;87;21097;-83
2021/08/14 09:27:16;;;;;;;8.33;3.22;;;;;;;34.07;30.58;101371.72;1620581;88;21591;-89
2021/08/14 09:29:44;;;;;;;12.18;3.83;;;;;;;33.99;30.91;101356.11;1620249;88;22909;-87
2021/08/14 09:32:14;;;;;;;6.90;3.52;;;;;;;33.97;31.19;101358.50;1616138;88;21195;-85
2021/08/14 09:34:45;;;;;;;6.67;3.22;;;;;;;33.84;31.15;101356.73;1544238;93;21462;-83
2021/08/14 09:37:14;;;;;;;7.25;3.10;;;;;;;33.56;31.07;101359.77;1498916;95;21497;-84
2021/08/14 09:42:27;;;;;;;10.55;3.27;;;;;;;33.07;31.00;101350.70;1431595;98;21204;-81
2021/08/14 09:45:15;;;;;;;5.35;3.20;;;;;;;32.69;31.91;101347.38;1414848;100;22071;-79
2021/08/14 09:47:48;;;;;;;15.30;3.37;;;;;;;32.31;32.64;101354.55;1431194;100;21098;-80
2021/08/14 09:50:15;;;;;;;10.32;3.00;;;;;;;31.94;32.42;101354.72;1431133;100;21731;-80
2021/08/14 09:52:41;;;;;;;14.73;3.15;;;;;;;31.73;33.45;101358.13;1410021;101;21116;-76
2021/08/14 09:55:14;;;;;;;8.58;3.08;;;;;;;31.70;33.29;101351.94;1430246;100;21139;-80
2021/08/14 09:57:41;;;;;;;10.18;2.92;;;;;;;31.49;34.25;101351.77;1441789;99;21645;-81
2021/08/14 10:00:09;;;;;;;8.53;3.22;;;;;;;31.51;33.87;101340.45;1410185;100;21569;-81
2021/08/14 10:02:37;;;;;;;10.65;3.00;;;;;;;31.48;34.05;101337.04;1429936;98;21588;-86
2021/08/14 10:05:05;;;;;;;7.67;3.45;;;;;;;31.56;34.31;101333.70;1415023;100;21652;-86
2021/08/14 10:07:33;;;;;;;9.58;3.83;;;;;;;31.57;35.11;101330.55;1451293;98;21624;-84
2021/08/14 10:10:00;;;;;;;7.15;3.17;;;;;;;31.70;34.97;101331.63;1463590;96;21970;-86
2021/08/14 10:12:26;;;;;;;8.95;3.08;;;;;;;31.85;34.49;101323.56;1438247;98;21206;-85
2021/08/14 10:14:52;;;;;;;8.40;3.37;;;;;;;31.91;34.88;101330.41;1455689;97;20979;-82
2021/08/14 10:17:23;;;;;;;6.85;3.60;;;;;;;31.72;34.71;101324.48;1455873;98;20959;-88
2021/08/14 10:19:46;;;;;;;7.03;3.05;;;;;;;31.37;34.01;101320.82;1495644;95;21664;-86
2021/08/14 10:22:15;;;;;;;9.18;3.67;;;;;;;31.20;34.85;101318.84;1495433;95;21100;-85
2021/08/14 10:24:44;;;;;;;6.78;2.90;;;;;;;31.40;35.24;101320.84;1476848;95;21523;-86
2021/08/14 10:27:15;;;;;;;9.95;3.67;;;;;;;31.55;34.52;101325.14;1488648;94;21053;-80
2021/08/14 10:29:58;;;;;;;5.70;3.10;;;;;;;31.30;34.78;101322.13;1506721;95;21069;-83
2021/08/14 10:32:38;;;;;;;12.90;3.87;;;;;;;30.93;35.16;101317.39;1510344;93;21131;-85
2021/08/14 10:35:21;;;;;;;8.25;3.72;;;;;;;30.82;35.55;101312.30;1517978;92;21190;-84
2021/08/14 10:37:49;;;;;;;12.33;3.55;;;;;;;30.89;35.38;101308.21;1529421;93;21060;-78
2021/08/14 10:40:18;;;;;;;8.88;3.42;;;;;;;30.73;35.15;101314.75;1563746;90;21584;-80
2021/08/14 10:42:58;;;;;;;10.95;4.10;;;;;;;30.58;35.73;101310.20;1570158;91;21084;-80
2021/08/14 10:45:37;;;;;;;5.85;3.52;;;;;;;30.62;36.08;101319.98;1632303;87;21545;-80
2021/08/14 10:48:05;;;;;;;9.60;3.52;;;;;;;30.40;35.38;101317.54;1640463;87;21962;-79
2021/08/14 10:50:37;;;;;;;8.63;3.60;;;;;;;30.25;36.35;101302.06;1640973;87;21089;-78
2021/08/14 10:53:22;;;;;;;15.43;3.65;;;;;;;30.24;36.22;101307.42;1640630;87;21096;-77
2021/08/14 10:55:49;;;;;;;11.43;3.50;;;;;;;30.33;35.88;101311.31;1632391;87;21090;-79
2021/08/14 10:58:24;;;;;;;10.13;3.90;;;;;;;30.45;37.07;101311.66;1622966;88;21085;-80
2021/08/14 11:01:04;;;;;;;13.55;3.85;;;;;;;30.52;35.94;101307.55;1619892;87;21241;-77
2021/08/14 11:03:41;;;;;;;14.85;4.17;;;;;;;30.39;36.50;101302.84;1626053;87;21190;-76
2021/08/14 11:06:27;;;;;;;10.05;3.90;;;;;;;30.33;36.89;101310.71;1580779;88;21635;-80
2021/08/14 11:09:21;;;;;;;6.40;3.67;;;;;;;30.54;35.99;101299.05;1571178;91;21613;-79
2021/08/14 11:12:01;;;;;;;5.92;3.40;;;;;;;30.67;36.53;101307.13;1570823;91;21077;-76
2021/08/14 11:14:43;;;;;;;7.58;3.60;;;;;;;30.82;36.79;101299.17;1571093;91;21179;-80
2021/08/14 11:17:12;;;;;;;8.43;3.65;;;;;;;30.97;36.24;101304.30;1571124;91;21608;-77
2021/08/14 11:19:53;;;;;;;10.20;3.45;;;;;;;30.83;35.45;101296.62;1588034;90;21128;-82